sensor_id;sensor_type;location;lat;lon;timestamp;temperature;humidity
67890;DHT22;54685;52.082;5.426;2023-08-17T00:02:13;18.70;99.90
67890;DHT22;54685;52.082;5.426;2023-08-17T00:04:40;18.70;99.90
67890;DHT22;54685;52.082;5.426;2023-08-17T00:07:07;18.60;99.90
67890;DHT22;54685;52.082;5.426;2023-08-17T00:09:33;18.60;99.90
67890;DHT22;54685;52.082;5.426;2023-08-17T00:12:01;18.60;99.90
67890;DHT22;54685;52.082;5.426;2023-08-17T00:14:29;18.60;99.90
67890;DHT22;54685;52.082;5.426;2023-08-17T00:16:57;18.60;99.90
67890;DHT22;54685;52.082;5.426;2023-08-17T00:19:24;18.60;99.90
67890;DHT22;54685;52.082;5.426;2023-08-17T00:21:51;18.50;99.90
67890;DHT22;54685;52.082;5.426;2023-08-17T00:24:19;18.40;99.90
67890;DHT22;54685;52.082;5.426;2023-08-17T00:26:46;18.40;99.90
67890;DHT22;54685;52.082;5.426;2023-08-17T00:29:13;18.40;99.90
67890;DHT22;54685;52.082;5.426;2023-08-17T00:31:41;18.30;99.90
67890;DHT22;54685;52.082;5.426;2023-08-17T00:34:08;18.30;99.90
67890;DHT22;54685;52.082;5.426;2023-08-17T00:36:35;18.40;99.90
67890;DHT22;54685;52.082;5.426;2023-08-17T00:39:02;18.30;99.90
67890;DHT22;54685;52.082;5.426;2023-08-17T00:41:29;18.20;99.90
67890;DHT22;54685;52.082;5.426;2023-08-17T00:43:57;18.20;99.90
67890;DHT22;54685;52.082;5.426;2023-08-17T00:46:24;18.20;99.90
67890;DHT22;54685;52.082;5.426;2023-08-17T00:48:52;18.20;99.90
67890;DHT22;54685;52.082;5.426;2023-08-17T00:51:19;18.20;99.90
67890;DHT22;54685;52.082;5.426;2023-08-17T00:53:47;18.20;99.90
67890;DHT22;54685;52.082;5.426;2023-08-17T00:56:14;18.20;99.90
67890;DHT22;54685;52.082;5.426;2023-08-17T00:58:42;18.20;99.90
67890;DHT22;54685;52.082;5.426;2023-08-17T01:01:10;18.10;99.90
67890;DHT22;54685;52.082;5.426;2023-08-17T01:03:37;18.10;99.90
67890;DHT22;54685;52.082;5.426;2023-08-17T01:06:07;18.00;99.90
67890;DHT22;54685;52.082;5.426;2023-08-17T01:08:35;18.00;99.90
67890;DHT22;54685;52.082;5.426;2023-08-17T01:11:17;17.90;99.90
67890;DHT22;54685;52.082;5.426;2023-08-17T01:14:01;17.90;99.90
67890;DHT22;54685;52.082;5.426;2023-08-17T01:16:31;17.80;99.90
67890;DHT22;54685;52.082;5.426;2023-08-17T01:19:00;17.80;99.90
67890;DHT22;54685;52.082;5.426;2023-08-17T01:21:50;17.80;99.90
67890;DHT22;54685;52.082;5.426;2023-08-17T01:24:18;17.80;99.90
67890;DHT22;54685;52.082;5.426;2023-08-17T01:26:44;17.80;99.90
67890;DHT22;54685;52.082;5.426;2023-08-17T01:29:13;17.80;99.90
67890;DHT22;54685;52.082;5.426;2023-08-17T01:32:04;17.80;99.90
67890;DHT22;54685;52.082;5.426;2023-08-17T01:34:39;17.80;99.90
67890;DHT22;54685;52.082;5.426;2023-08-17T01:37:07;17.70;99.90
67890;DHT22;54685;52.082;5.426;2023-08-17T01:39:43;17.80;99.90
67890;DHT22;54685;52.082;5.426;2023-08-17T01:42:12;17.80;99.90
67890;DHT22;54685;52.082;5.426;2023-08-17T01:44:39;17.80;99.90
67890;DHT22;54685;52.082;5.426;2023-08-17T01:47:06;17.80;99.90
67890;DHT22;54685;52.082;5.426;2023-08-17T01:49:33;17.80;99.90
67890;DHT22;54685;52.082;5.426;2023-08-17T01:52:00;17.80;99.90
67890;DHT22;54685;52.082;5.426;2023-08-17T01:54:28;17.80;99.90
67890;DHT22;54685;52.082;5.426;2023-08-17T01:56:55;17.80;99.90
67890;DHT22;54685;52.082;5.426;2023-08-17T01:59:23;17.70;99.90
67890;DHT22;54685;52.082;5.426;2023-08-17T02:01:50;17.70;99.90
67890;DHT22;54685;52.082;5.426;2023-08-17T02:04:17;17.70;99.90
67890;DHT22;54685;52.082;5.426;2023-08-17T02:06:44;17.70;99.90
67890;DHT22;54685;52.082;5.426;2023-08-17T02:09:10;17.70;99.90
67890;DHT22;54685;52.082;5.426;2023-08-17T02:11:37;17.60;99.90
67890;DHT22;54685;52.082;5.426;2023-08-17T02:14:04;17.60;99.90
67890;DHT22;54685;52.082;5.426;2023-08-17T02:16:31;17.60;99.90
67890;DHT22;54685;52.082;5.426;2023-08-17T02:18:58;17.50;99.90
67890;DHT22;54685;52.082;5.426;2023-08-17T02:21:25;17.60;99.90
67890;DHT22;54685;52.082;5.426;2023-08-17T02:23:51;17.60;99.90
67890;DHT22;54685;52.082;5.426;2023-08-17T02:26:21;17.60;99.90
67890;DHT22;54685;52.082;5.426;2023-08-17T02:28:48;17.60;99.90
67890;DHT22;54685;52.082;5.426;2023-08-17T02:31:15;17.60;99.90
67890;DHT22;54685;52.082;5.426;2023-08-17T02:33:42;17.60;99.90
67890;DHT22;54685;52.082;5.426;2023-08-17T02:36:08;17.70;99.90
67890;DHT22;54685;52.082;5.426;2023-08-17T02:38:35;17.60;99.90
67890;DHT22;54685;52.082;5.426;2023-08-17T02:41:02;17.60;99.90
67890;DHT22;54685;52.082;5.426;2023-08-17T02:43:29;17.60;99.90
67890;DHT22;54685;52.082;5.426;2023-08-17T02:45:56;17.60;99.90
67890;DHT22;54685;52.082;5.426;2023-08-17T02:48:23;17.50;99.90
67890;DHT22;54685;52.082;5.426;2023-08-17T02:50:50;17.50;99.90
67890;DHT22;54685;52.082;5.426;2023-08-17T02:53:17;17.50;99.90
67890;DHT22;54685;52.082;5.426;2023-08-17T02:55:44;17.40;99.90
67890;DHT22;54685;52.082;5.426;2023-08-17T02:58:10;17.40;99.90
67890;DHT22;54685;52.082;5.426;2023-08-17T03:00:38;17.40;99.90
67890;DHT22;54685;52.082;5.426;2023-08-17T03:03:05;17.40;99.90
67890;DHT22;54685;52.082;5.426;2023-08-17T03:05:33;17.40;99.90
67890;DHT22;54685;52.082;5.426;2023-08-17T03:08:00;17.30;99.90
67890;DHT22;54685;52.082;5.426;2023-08-17T03:10:27;17.40;99.90
67890;DHT22;54685;52.082;5.426;2023-08-17T03:12:54;17.40;99.90
67890;DHT22;54685;52.082;5.426;2023-08-17T03:15:21;17.40;99.90
67890;DHT22;54685;52.082;5.426;2023-08-17T03:17:48;17.40;99.90
67890;DHT22;54685;52.082;5.426;2023-08-17T03:20:15;17.40;99.90
67890;DHT22;54685;52.082;5.426;2023-08-17T03:22:42;17.30;99.90
67890;DHT22;54685;52.082;5.426;2023-08-17T03:25:08;17.40;99.90
67890;DHT22;54685;52.082;5.426;2023-08-17T03:27:36;17.30;99.90
67890;DHT22;54685;52.082;5.426;2023-08-17T03:30:04;17.40;99.90
67890;DHT22;54685;52.082;5.426;2023-08-17T03:32:32;17.30;99.90
67890;DHT22;54685;52.082;5.426;2023-08-17T03:34:58;17.20;99.90
67890;DHT22;54685;52.082;5.426;2023-08-17T03:37:25;17.20;99.90
67890;DHT22;54685;52.082;5.426;2023-08-17T03:39:53;17.20;99.90
67890;DHT22;54685;52.082;5.426;2023-08-17T03:42:20;17.20;99.90
67890;DHT22;54685;52.082;5.426;2023-08-17T03:44:48;17.20;99.90
67890;DHT22;54685;52.082;5.426;2023-08-17T03:47:14;17.20;99.90
67890;DHT22;54685;52.082;5.426;2023-08-17T03:49:41;17.20;99.90
67890;DHT22;54685;52.082;5.426;2023-08-17T03:52:08;17.20;99.90
67890;DHT22;54685;52.082;5.426;2023-08-17T03:54:35;17.20;99.90
67890;DHT22;54685;52.082;5.426;2023-08-17T03:57:02;17.20;99.90
67890;DHT22;54685;52.082;5.426;2023-08-17T03:59:29;17.20;99.90
67890;DHT22;54685;52.082;5.426;2023-08-17T04:01:56;17.20;99.90
67890;DHT22;54685;52.082;5.426;2023-08-17T04:04:23;17.20;99.90
67890;DHT22;54685;52.082;5.426;2023-08-17T04:06:50;17.20;99.90
67890;DHT22;54685;52.082;5.426;2023-08-17T04:09:17;17.20;99.90
67890;DHT22;54685;52.082;5.426;2023-08-17T04:11:44;17.20;99.90
67890;DHT22;54685;52.082;5.426;2023-08-17T04:14:11;17.30;99.90
67890;DHT22;54685;52.082;5.426;2023-08-17T04:16:39;17.20;99.90
67890;DHT22;54685;52.082;5.426;2023-08-17T04:19:07;17.20;99.90
67890;DHT22;54685;52.082;5.426;2023-08-17T04:21:34;17.20;99.90
67890;DHT22;54685;52.082;5.426;2023-08-17T04:24:01;17.20;99.90
67890;DHT22;54685;52.082;5.426;2023-08-17T04:26:29;17.20;99.90
67890;DHT22;54685;52.082;5.426;2023-08-17T04:28:56;17.20;99.90
67890;DHT22;54685;52.082;5.426;2023-08-17T04:31:23;17.20;99.90
67890;DHT22;54685;52.082;5.426;2023-08-17T04:33:57;17.20;99.90
67890;DHT22;54685;52.082;5.426;2023-08-17T04:36:24;17.20;99.90
67890;DHT22;54685;52.082;5.426;2023-08-17T04:38:53;17.20;99.90
67890;DHT22;54685;52.082;5.426;2023-08-17T04:41:20;17.10;99.90
67890;DHT22;54685;52.082;5.426;2023-08-17T04:43:50;17.10;99.90
67890;DHT22;54685;52.082;5.426;2023-08-17T04:46:17;17.20;99.90
67890;DHT22;54685;52.082;5.426;2023-08-17T04:48:44;17.20;99.90
67890;DHT22;54685;52.082;5.426;2023-08-17T04:51:11;17.20;99.90
67890;DHT22;54685;52.082;5.426;2023-08-17T04:53:42;17.20;99.90
67890;DHT22;54685;52.082;5.426;2023-08-17T04:56:09;17.20;99.90
67890;DHT22;54685;52.082;5.426;2023-08-17T04:58:38;17.20;99.90
67890;DHT22;54685;52.082;5.426;2023-08-17T05:01:04;17.20;99.90
67890;DHT22;54685;52.082;5.426;2023-08-17T05:03:32;17.20;99.90
67890;DHT22;54685;52.082;5.426;2023-08-17T05:06:01;17.10;99.90
67890;DHT22;54685;52.082;5.426;2023-08-17T05:08:29;17.10;99.90
67890;DHT22;54685;52.082;5.426;2023-08-17T05:10:56;17.10;99.90
67890;DHT22;54685;52.082;5.426;2023-08-17T05:13:24;17.10;99.90
67890;DHT22;54685;52.082;5.426;2023-08-17T05:15:53;17.10;99.90
67890;DHT22;54685;52.082;5.426;2023-08-17T05:18:21;17.10;99.90
67890;DHT22;54685;52.082;5.426;2023-08-17T05:20:48;17.10;99.90
67890;DHT22;54685;52.082;5.426;2023-08-17T05:23:15;17.10;99.90
67890;DHT22;54685;52.082;5.426;2023-08-17T05:25:46;17.20;99.90
67890;DHT22;54685;52.082;5.426;2023-08-17T05:28:14;17.20;99.90
67890;DHT22;54685;52.082;5.426;2023-08-17T05:30:41;17.20;99.90
67890;DHT22;54685;52.082;5.426;2023-08-17T05:33:08;17.20;99.90
67890;DHT22;54685;52.082;5.426;2023-08-17T05:35:35;17.20;99.90
67890;DHT22;54685;52.082;5.426;2023-08-17T05:38:01;17.30;99.90
67890;DHT22;54685;52.082;5.426;2023-08-17T05:40:32;17.30;99.90
67890;DHT22;54685;52.082;5.426;2023-08-17T05:42:59;17.40;99.90
67890;DHT22;54685;52.082;5.426;2023-08-17T05:45:26;17.40;99.90
67890;DHT22;54685;52.082;5.426;2023-08-17T05:47:53;17.50;99.90
67890;DHT22;54685;52.082;5.426;2023-08-17T05:50:20;17.60;99.90
67890;DHT22;54685;52.082;5.426;2023-08-17T05:52:47;17.60;99.90
67890;DHT22;54685;52.082;5.426;2023-08-17T05:55:14;17.60;99.90
67890;DHT22;54685;52.082;5.426;2023-08-17T05:57:41;17.70;99.90
67890;DHT22;54685;52.082;5.426;2023-08-17T06:00:08;17.80;99.90
67890;DHT22;54685;52.082;5.426;2023-08-17T06:02:41;17.80;99.90
67890;DHT22;54685;52.082;5.426;2023-08-17T06:05:09;17.70;99.90
67890;DHT22;54685;52.082;5.426;2023-08-17T06:07:36;17.70;99.90
67890;DHT22;54685;52.082;5.426;2023-08-17T06:10:04;17.70;99.90
67890;DHT22;54685;52.082;5.426;2023-08-17T06:12:32;17.70;99.90
67890;DHT22;54685;52.082;5.426;2023-08-17T06:15:01;17.70;99.90
67890;DHT22;54685;52.082;5.426;2023-08-17T06:17:28;17.80;99.90
67890;DHT22;54685;52.082;5.426;2023-08-17T06:19:55;17.80;99.90
67890;DHT22;54685;52.082;5.426;2023-08-17T06:22:23;17.80;99.90
67890;DHT22;54685;52.082;5.426;2023-08-17T06:24:50;17.80;99.90
67890;DHT22;54685;52.082;5.426;2023-08-17T06:27:16;17.80;99.90
67890;DHT22;54685;52.082;5.426;2023-08-17T06:29:43;17.80;99.90
67890;DHT22;54685;52.082;5.426;2023-08-17T06:32:10;17.80;99.90
67890;DHT22;54685;52.082;5.426;2023-08-17T06:34:37;17.80;99.90
67890;DHT22;54685;52.082;5.426;2023-08-17T06:37:04;17.80;99.90
67890;DHT22;54685;52.082;5.426;2023-08-17T06:39:32;17.80;99.90
67890;DHT22;54685;52.082;5.426;2023-08-17T06:41:59;17.80;99.90
67890;DHT22;54685;52.082;5.426;2023-08-17T06:44:26;17.80;99.90
67890;DHT22;54685;52.082;5.426;2023-08-17T06:46:53;17.70;99.90
67890;DHT22;54685;52.082;5.426;2023-08-17T06:49:19;17.70;99.90
67890;DHT22;54685;52.082;5.426;2023-08-17T06:51:46;17.70;99.90
67890;DHT22;54685;52.082;5.426;2023-08-17T06:54:13;17.80;99.90
67890;DHT22;54685;52.082;5.426;2023-08-17T06:56:40;17.80;99.90
67890;DHT22;54685;52.082;5.426;2023-08-17T06:59:07;17.80;99.90
67890;DHT22;54685;52.082;5.426;2023-08-17T07:01:34;17.90;99.90
67890;DHT22;54685;52.082;5.426;2023-08-17T07:04:01;17.90;99.90
67890;DHT22;54685;52.082;5.426;2023-08-17T07:06:28;17.90;99.90
67890;DHT22;54685;52.082;5.426;2023-08-17T07:08:55;18.00;99.90
67890;DHT22;54685;52.082;5.426;2023-08-17T07:11:23;18.00;99.90
67890;DHT22;54685;52.082;5.426;2023-08-17T07:13:50;18.00;99.90
67890;DHT22;54685;52.082;5.426;2023-08-17T07:16:17;18.10;99.90
67890;DHT22;54685;52.082;5.426;2023-08-17T07:18:44;18.10;99.90
67890;DHT22;54685;52.082;5.426;2023-08-17T07:21:11;18.10;99.90
67890;DHT22;54685;52.082;5.426;2023-08-17T07:23:38;18.10;99.90
67890;DHT22;54685;52.082;5.426;2023-08-17T07:26:05;18.20;99.90
67890;DHT22;54685;52.082;5.426;2023-08-17T07:28:32;18.30;99.90
67890;DHT22;54685;52.082;5.426;2023-08-17T07:30:59;18.30;99.90
67890;DHT22;54685;52.082;5.426;2023-08-17T07:33:26;18.40;99.90
67890;DHT22;54685;52.082;5.426;2023-08-17T07:35:52;18.50;99.90
67890;DHT22;54685;52.082;5.426;2023-08-17T07:38:21;18.60;99.90
67890;DHT22;54685;52.082;5.426;2023-08-17T07:40:48;18.70;99.90
67890;DHT22;54685;52.082;5.426;2023-08-17T07:43:14;18.80;99.90
67890;DHT22;54685;52.082;5.426;2023-08-17T07:45:41;18.90;99.90
67890;DHT22;54685;52.082;5.426;2023-08-17T07:48:08;18.90;99.90
67890;DHT22;54685;52.082;5.426;2023-08-17T07:50:35;19.10;99.90
67890;DHT22;54685;52.082;5.426;2023-08-17T07:53:02;19.20;99.90
67890;DHT22;54685;52.082;5.426;2023-08-17T07:55:29;19.20;99.90
67890;DHT22;54685;52.082;5.426;2023-08-17T07:57:55;19.30;99.90
67890;DHT22;54685;52.082;5.426;2023-08-17T08:00:22;19.30;99.90
67890;DHT22;54685;52.082;5.426;2023-08-17T08:02:49;19.30;99.90
67890;DHT22;54685;52.082;5.426;2023-08-17T08:05:16;19.30;99.90
67890;DHT22;54685;52.082;5.426;2023-08-17T08:07:43;19.20;99.90
67890;DHT22;54685;52.082;5.426;2023-08-17T08:10:10;19.30;99.90
67890;DHT22;54685;52.082;5.426;2023-08-17T08:12:36;19.40;99.90
67890;DHT22;54685;52.082;5.426;2023-08-17T08:15:04;19.40;99.90
67890;DHT22;54685;52.082;5.426;2023-08-17T08:17:31;19.50;99.90
67890;DHT22;54685;52.082;5.426;2023-08-17T08:19:58;19.50;99.90
67890;DHT22;54685;52.082;5.426;2023-08-17T08:22:25;19.50;99.90
67890;DHT22;54685;52.082;5.426;2023-08-17T08:24:52;19.60;99.90
67890;DHT22;54685;52.082;5.426;2023-08-17T08:27:19;19.60;99.90
67890;DHT22;54685;52.082;5.426;2023-08-17T08:29:46;19.70;99.90
67890;DHT22;54685;52.082;5.426;2023-08-17T08:32:13;19.70;99.90
67890;DHT22;54685;52.082;5.426;2023-08-17T08:34:40;19.70;99.90
67890;DHT22;54685;52.082;5.426;2023-08-17T08:37:07;19.70;99.90
67890;DHT22;54685;52.082;5.426;2023-08-17T08:39:48;19.70;99.90
67890;DHT22;54685;52.082;5.426;2023-08-17T08:42:15;19.60;99.90
67890;DHT22;54685;52.082;5.426;2023-08-17T08:44:42;19.70;99.90
67890;DHT22;54685;52.082;5.426;2023-08-17T08:47:10;19.70;99.90
67890;DHT22;54685;52.082;5.426;2023-08-17T08:49:40;19.70;99.90
67890;DHT22;54685;52.082;5.426;2023-08-17T08:52:12;19.70;99.90
67890;DHT22;54685;52.082;5.426;2023-08-17T08:54:39;19.70;99.90
67890;DHT22;54685;52.082;5.426;2023-08-17T08:57:11;19.70;99.90
67890;DHT22;54685;52.082;5.426;2023-08-17T08:59:41;19.60;99.90
67890;DHT22;54685;52.082;5.426;2023-08-17T09:02:15;19.60;99.90
67890;DHT22;54685;52.082;5.426;2023-08-17T09:04:43;19.70;99.90
67890;DHT22;54685;52.082;5.426;2023-08-17T09:07:16;19.70;99.90
67890;DHT22;54685;52.082;5.426;2023-08-17T09:09:45;19.80;99.90
67890;DHT22;54685;52.082;5.426;2023-08-17T09:12:12;19.90;99.90
67890;DHT22;54685;52.082;5.426;2023-08-17T09:14:49;19.90;99.90
67890;DHT22;54685;52.082;5.426;2023-08-17T09:17:23;20.00;99.90
67890;DHT22;54685;52.082;5.426;2023-08-17T09:19:51;20.00;99.90
67890;DHT22;54685;52.082;5.426;2023-08-17T09:22:37;20.00;99.90
67890;DHT22;54685;52.082;5.426;2023-08-17T09:25:05;20.00;99.90
67890;DHT22;54685;52.082;5.426;2023-08-17T09:27:32;20.00;99.90
67890;DHT22;54685;52.082;5.426;2023-08-17T09:30:08;20.00;99.90
67890;DHT22;54685;52.082;5.426;2023-08-17T09:32:35;20.00;99.90
67890;DHT22;54685;52.082;5.426;2023-08-17T09:35:03;20.10;99.90
67890;DHT22;54685;52.082;5.426;2023-08-17T09:37:32;20.10;99.90
67890;DHT22;54685;52.082;5.426;2023-08-17T09:40:00;20.10;99.90
67890;DHT22;54685;52.082;5.426;2023-08-17T09:42:27;20.10;99.90
67890;DHT22;54685;52.082;5.426;2023-08-17T09:44:54;20.20;99.90
67890;DHT22;54685;52.082;5.426;2023-08-17T09:47:24;20.30;99.90
67890;DHT22;54685;52.082;5.426;2023-08-17T09:49:54;20.30;99.90
67890;DHT22;54685;52.082;5.426;2023-08-17T09:52:22;20.40;99.90
67890;DHT22;54685;52.082;5.426;2023-08-17T09:54:52;20.40;99.90
67890;DHT22;54685;52.082;5.426;2023-08-17T09:57:19;20.50;99.90
67890;DHT22;54685;52.082;5.426;2023-08-17T09:59:48;20.50;99.90
67890;DHT22;54685;52.082;5.426;2023-08-17T10:02:23;20.60;99.90
67890;DHT22;54685;52.082;5.426;2023-08-17T10:04:53;20.60;99.90
67890;DHT22;54685;52.082;5.426;2023-08-17T10:07:23;20.60;99.90
67890;DHT22;54685;52.082;5.426;2023-08-17T10:10:03;20.60;99.90
67890;DHT22;54685;52.082;5.426;2023-08-17T10:12:35;20.70;99.90
67890;DHT22;54685;52.082;5.426;2023-08-17T10:15:08;20.60;99.90
67890;DHT22;54685;52.082;5.426;2023-08-17T10:17:43;20.60;99.90
67890;DHT22;54685;52.082;5.426;2023-08-17T10:20:11;20.60;99.90
67890;DHT22;54685;52.082;5.426;2023-08-17T10:25:15;20.60;99.90
67890;DHT22;54685;52.082;5.426;2023-08-17T10:27:43;20.60;99.90
67890;DHT22;54685;52.082;5.426;2023-08-17T10:30:11;20.60;99.90
67890;DHT22;54685;52.082;5.426;2023-08-17T10:32:38;20.60;99.90
67890;DHT22;54685;52.082;5.426;2023-08-17T10:35:08;20.60;99.90
67890;DHT22;54685;52.082;5.426;2023-08-17T10:37:35;20.60;99.90
67890;DHT22;54685;52.082;5.426;2023-08-17T10:40:02;20.60;99.90
67890;DHT22;54685;52.082;5.426;2023-08-17T10:42:33;20.70;99.90
67890;DHT22;54685;52.082;5.426;2023-08-17T10:45:28;20.60;99.90
67890;DHT22;54685;52.082;5.426;2023-08-17T10:50:59;20.50;99.90
67890;DHT22;54685;52.082;5.426;2023-08-17T10:53:26;20.50;99.90
67890;DHT22;54685;52.082;5.426;2023-08-17T10:55:57;20.40;99.90
67890;DHT22;54685;52.082;5.426;2023-08-17T10:58:24;20.50;99.90
67890;DHT22;54685;52.082;5.426;2023-08-17T11:00:54;20.60;99.90
67890;DHT22;54685;52.082;5.426;2023-08-17T11:03:22;20.60;99.90
67890;DHT22;54685;52.082;5.426;2023-08-17T11:05:56;20.80;99.90
67890;DHT22;54685;52.082;5.426;2023-08-17T11:08:32;20.70;99.90
67890;DHT22;54685;52.082;5.426;2023-08-17T11:11:12;20.80;99.90
67890;DHT22;54685;52.082;5.426;2023-08-17T11:13:43;20.80;99.90
67890;DHT22;54685;52.082;5.426;2023-08-17T11:16:12;20.80;99.90
67890;DHT22;54685;52.082;5.426;2023-08-17T11:18:44;20.80;99.90
67890;DHT22;54685;52.082;5.426;2023-08-17T11:21:11;20.80;99.90
67890;DHT22;54685;52.082;5.426;2023-08-17T11:23:44;20.80;99.90
67890;DHT22;54685;52.082;5.426;2023-08-17T11:26:11;20.80;99.90
67890;DHT22;54685;52.082;5.426;2023-08-17T11:28:41;20.80;99.90
67890;DHT22;54685;52.082;5.426;2023-08-17T11:31:11;20.90;99.90
67890;DHT22;54685;52.082;5.426;2023-08-17T11:33:39;20.90;99.90
67890;DHT22;54685;52.082;5.426;2023-08-17T11:36:07;20.90;99.90
67890;DHT22;54685;52.082;5.426;2023-08-17T11:38:36;20.90;99.90
67890;DHT22;54685;52.082;5.426;2023-08-17T11:41:05;20.90;99.90
67890;DHT22;54685;52.082;5.426;2023-08-17T11:43:35;20.90;99.90
67890;DHT22;54685;52.082;5.426;2023-08-17T11:46:02;20.80;99.90
67890;DHT22;54685;52.082;5.426;2023-08-17T11:48:30;20.90;99.90
67890;DHT22;54685;52.082;5.426;2023-08-17T11:51:02;20.90;99.90
67890;DHT22;54685;52.082;5.426;2023-08-17T11:53:37;21.10;99.90
67890;DHT22;54685;52.082;5.426;2023-08-17T11:56:06;21.00;99.90
67890;DHT22;54685;52.082;5.426;2023-08-17T11:58:43;21.00;99.90
67890;DHT22;54685;52.082;5.426;2023-08-17T12:01:11;21.00;99.90
67890;DHT22;54685;52.082;5.426;2023-08-17T12:03:40;20.90;99.90
67890;DHT22;54685;52.082;5.426;2023-08-17T12:06:09;20.90;99.90
67890;DHT22;54685;52.082;5.426;2023-08-17T12:08:36;20.90;99.90
67890;DHT22;54685;52.082;5.426;2023-08-17T12:11:03;20.90;99.90
67890;DHT22;54685;52.082;5.426;2023-08-17T12:13:35;20.90;99.90
67890;DHT22;54685;52.082;5.426;2023-08-17T12:16:03;21.00;99.90
67890;DHT22;54685;52.082;5.426;2023-08-17T12:18:33;21.00;99.90
67890;DHT22;54685;52.082;5.426;2023-08-17T12:21:01;21.00;99.90
67890;DHT22;54685;52.082;5.426;2023-08-17T12:23:28;21.10;99.90
67890;DHT22;54685;52.082;5.426;2023-08-17T12:25:55;21.10;99.90
67890;DHT22;54685;52.082;5.426;2023-08-17T12:28:23;21.10;99.90
67890;DHT22;54685;52.082;5.426;2023-08-17T12:31:01;21.10;99.90
67890;DHT22;54685;52.082;5.426;2023-08-17T12:33:28;21.10;99.90
67890;DHT22;54685;52.082;5.426;2023-08-17T12:35:55;21.00;99.90
67890;DHT22;54685;52.082;5.426;2023-08-17T12:38:26;21.00;99.90
67890;DHT22;54685;52.082;5.426;2023-08-17T12:40:53;21.00;99.90
67890;DHT22;54685;52.082;5.426;2023-08-17T12:43:20;21.00;99.90
67890;DHT22;54685;52.082;5.426;2023-08-17T12:45:47;21.00;99.90
67890;DHT22;54685;52.082;5.426;2023-08-17T12:48:14;20.90;99.90
67890;DHT22;54685;52.082;5.426;2023-08-17T12:50:41;20.90;99.90
67890;DHT22;54685;52.082;5.426;2023-08-17T12:53:10;20.80;99.90
67890;DHT22;54685;52.082;5.426;2023-08-17T12:55:37;20.80;99.90
67890;DHT22;54685;52.082;5.426;2023-08-17T12:58:07;20.80;99.90
67890;DHT22;54685;52.082;5.426;2023-08-17T13:00:33;20.80;99.90
67890;DHT22;54685;52.082;5.426;2023-08-17T13:03:00;20.90;99.90
67890;DHT22;54685;52.082;5.426;2023-08-17T13:05:27;20.80;99.90
67890;DHT22;54685;52.082;5.426;2023-08-17T13:07:54;20.90;99.90
67890;DHT22;54685;52.082;5.426;2023-08-17T13:10:21;20.90;99.90
67890;DHT22;54685;52.082;5.426;2023-08-17T13:12:48;20.90;99.90
67890;DHT22;54685;52.082;5.426;2023-08-17T13:15:14;20.90;99.90
67890;DHT22;54685;52.082;5.426;2023-08-17T13:17:42;20.90;99.90
67890;DHT22;54685;52.082;5.426;2023-08-17T13:20:11;20.90;99.90
67890;DHT22;54685;52.082;5.426;2023-08-17T13:22:37;20.90;99.90
67890;DHT22;54685;52.082;5.426;2023-08-17T13:25:05;20.90;99.90
67890;DHT22;54685;52.082;5.426;2023-08-17T13:27:32;20.90;99.90
67890;DHT22;54685;52.082;5.426;2023-08-17T13:29:59;21.00;99.90
67890;DHT22;54685;52.082;5.426;2023-08-17T13:32:26;20.90;99.90
67890;DHT22;54685;52.082;5.426;2023-08-17T13:34:54;21.00;99.90
67890;DHT22;54685;52.082;5.426;2023-08-17T13:37:21;20.90;99.90
67890;DHT22;54685;52.082;5.426;2023-08-17T13:39:47;20.90;99.90
67890;DHT22;54685;52.082;5.426;2023-08-17T13:42:14;20.80;99.90
67890;DHT22;54685;52.082;5.426;2023-08-17T13:44:41;20.80;99.90
67890;DHT22;54685;52.082;5.426;2023-08-17T13:47:08;20.80;99.90
67890;DHT22;54685;52.082;5.426;2023-08-17T13:49:35;20.70;99.90
67890;DHT22;54685;52.082;5.426;2023-08-17T13:52:02;20.80;99.90
67890;DHT22;54685;52.082;5.426;2023-08-17T13:54:29;20.80;99.90
67890;DHT22;54685;52.082;5.426;2023-08-17T13:56:56;20.80;99.90
67890;DHT22;54685;52.082;5.426;2023-08-17T13:59:23;20.90;99.90
67890;DHT22;54685;52.082;5.426;2023-08-17T14:01:50;20.90;99.90
67890;DHT22;54685;52.082;5.426;2023-08-17T14:04:17;21.00;99.90
67890;DHT22;54685;52.082;5.426;2023-08-17T14:06:45;20.90;99.90
67890;DHT22;54685;52.082;5.426;2023-08-17T14:09:12;21.00;99.90
67890;DHT22;54685;52.082;5.426;2023-08-17T14:11:38;21.00;99.90
67890;DHT22;54685;52.082;5.426;2023-08-17T14:14:05;21.10;99.90
67890;DHT22;54685;52.082;5.426;2023-08-17T14:16:36;21.10;99.90
67890;DHT22;54685;52.082;5.426;2023-08-17T14:19:03;21.10;99.90
67890;DHT22;54685;52.082;5.426;2023-08-17T14:21:30;21.20;99.90
67890;DHT22;54685;52.082;5.426;2023-08-17T14:23:57;21.30;99.90
67890;DHT22;54685;52.082;5.426;2023-08-17T14:26:23;21.30;99.90
67890;DHT22;54685;52.082;5.426;2023-08-17T14:28:50;21.30;99.90
67890;DHT22;54685;52.082;5.426;2023-08-17T14:31:17;21.30;99.90
67890;DHT22;54685;52.082;5.426;2023-08-17T14:33:45;21.20;99.90
67890;DHT22;54685;52.082;5.426;2023-08-17T14:36:16;21.20;99.90
67890;DHT22;54685;52.082;5.426;2023-08-17T14:38:47;21.20;99.90
67890;DHT22;54685;52.082;5.426;2023-08-17T14:41:14;21.20;99.90
67890;DHT22;54685;52.082;5.426;2023-08-17T14:43:40;21.20;99.90
67890;DHT22;54685;52.082;5.426;2023-08-17T14:46:07;21.20;99.90
67890;DHT22;54685;52.082;5.426;2023-08-17T14:48:41;21.20;99.90
67890;DHT22;54685;52.082;5.426;2023-08-17T14:51:07;21.20;99.90
67890;DHT22;54685;52.082;5.426;2023-08-17T14:53:34;21.20;99.90
67890;DHT22;54685;52.082;5.426;2023-08-17T14:56:05;21.30;99.90
67890;DHT22;54685;52.082;5.426;2023-08-17T14:58:32;21.40;99.90
67890;DHT22;54685;52.082;5.426;2023-08-17T15:00:59;21.40;99.90
67890;DHT22;54685;52.082;5.426;2023-08-17T15:03:27;21.40;99.90
67890;DHT22;54685;52.082;5.426;2023-08-17T15:05:54;21.40;99.90
67890;DHT22;54685;52.082;5.426;2023-08-17T15:08:21;21.40;99.90
67890;DHT22;54685;52.082;5.426;2023-08-17T15:10:48;21.30;99.90
67890;DHT22;54685;52.082;5.426;2023-08-17T15:13:15;21.30;99.90
67890;DHT22;54685;52.082;5.426;2023-08-17T15:15:42;21.30;99.90
67890;DHT22;54685;52.082;5.426;2023-08-17T15:18:09;21.40;99.90
67890;DHT22;54685;52.082;5.426;2023-08-17T15:20:36;21.40;99.90
67890;DHT22;54685;52.082;5.426;2023-08-17T15:23:03;21.30;99.90
67890;DHT22;54685;52.082;5.426;2023-08-17T15:25:30;21.30;99.90
67890;DHT22;54685;52.082;5.426;2023-08-17T15:27:57;21.30;99.90
67890;DHT22;54685;52.082;5.426;2023-08-17T15:30:24;21.20;99.90
67890;DHT22;54685;52.082;5.426;2023-08-17T15:32:51;21.20;99.90
67890;DHT22;54685;52.082;5.426;2023-08-17T15:35:17;21.20;99.90
67890;DHT22;54685;52.082;5.426;2023-08-17T15:37:44;21.10;99.90
67890;DHT22;54685;52.082;5.426;2023-08-17T15:40:11;21.30;99.90
67890;DHT22;54685;52.082;5.426;2023-08-17T15:42:38;21.20;99.90